Řízení letového provozu České republiky
Letiste: LKTB Aktualizace: 28.06.2017 05:06:13  UTC
 METAR LKTB 28.06. 05:00 ...
METAR LKTB 280500Z 12006KT CAVOK 22/16 Q1004 NOSIG RMK REG QNH 1002=
 TAF LKTB 27.06. 23:00 ...
TAF LKTB 272300Z 2800/2906 15008KT CAVOK      BECMG 2807/2809 13010KT      TEMPO 2809/2818 13018G38KT      PROB40 TEMPO 2817/2821 5000 TSRA BKN025CB      TEMPO 2821/2906 7000 SHRA SCT035TCU      PROB30 TEMPO 2821/2902 20022G36KT 3000 TSRA BKN030CB=